Aviation Digital Data Service (ADDS)

Output produced by METARs form (0341 UTC 05 September 2015)
found at http://aviationweather.gov/adds/metars/
 
KLAN 042341Z 0500/0524 VRB03KT P6SM SCT040 BKN250 
     FM050400 00000KT 4SM BR BKN035 
     FM050900 00000KT 2SM BR BKN025 
     FM051500 23008KT P6SM BKN035